Time;durP1;ratioP1;P1;durP2;ratioP2;P2;SDS_P1;SDS_P2;PMS_P1;PMS_P2;Temp;Humidity;BMP_temperature;BMP_pressure;BME280_temperature;BME280_humidity;BME280_pressure;Samples;Min_cycle;Max_cycle;Signal;HPM_P1;HPM_P2
2023/11/02 00:01:32;;;;;;;6.63;2.70;;;9.60;99.90;;;;;;4996160;28;20464;-74
2023/11/02 00:03:59;;;;;;;6.15;3.13;;;9.60;99.90;;;;;;4987973;28;20392;-73
2023/11/02 00:06:36;;;;;;;6.22;2.63;;;9.60;99.90;;;;;;4994063;28;20030;-74
2023/11/02 00:09:11;;;;;;;8.07;2.53;;;9.50;99.90;;;;;;4989350;28;20034;-74
2023/11/02 00:12:02;;;;;;;4.82;2.58;;;9.50;99.90;;;;;;4993591;28;20598;-73
2023/11/02 00:14:35;;;;;;;4.20;2.83;;;9.60;99.90;;;;;;4990194;28;20026;-74
2023/11/02 00:17:06;;;;;;;7.17;3.10;;;9.50;99.90;;;;;;5000945;28;20042;-73
2023/11/02 00:19:37;;;;;;;8.73;4.32;;;9.40;99.90;;;;;;4998094;28;20308;-73
2023/11/02 00:22:07;;;;;;;7.47;3.28;;;9.40;99.90;;;;;;4997992;28;20030;-73
2023/11/02 00:24:44;;;;;;;7.22;3.42;;;9.40;99.90;;;;;;4991493;28;20026;-73
2023/11/02 00:27:11;;;;;;;6.65;3.30;;;9.40;99.90;;;;;;4999150;28;20023;-74
2023/11/02 00:29:38;;;;;;;6.22;3.40;;;9.40;99.90;;;;;;4992775;28;20068;-74
2023/11/02 00:32:05;;;;;;;8.65;4.40;;;9.40;99.90;;;;;;5000607;28;20397;-74
2023/11/02 00:34:31;;;;;;;7.60;4.00;;;9.40;99.90;;;;;;4997121;28;20031;-74
2023/11/02 00:36:59;;;;;;;8.80;3.88;;;9.40;99.90;;;;;;5001609;28;20042;-73
2023/11/02 00:39:26;;;;;;;6.43;3.80;;;9.30;99.90;;;;;;4990272;28;20051;-73
2023/11/02 00:41:52;;;;;;;7.20;3.63;;;9.30;99.90;;;;;;5005394;28;20026;-74
2023/11/02 00:44:18;;;;;;;5.95;3.38;;;9.40;99.90;;;;;;4998666;28;20037;-73
2023/11/02 00:46:46;;;;;;;7.13;3.38;;;9.30;99.90;;;;;;4997483;28;20728;-73
2023/11/02 00:49:23;;;;;;;5.35;3.13;;;9.30;99.90;;;;;;4992927;28;20050;-74
2023/11/02 00:51:56;;;;;;;5.75;3.47;;;9.20;99.90;;;;;;4993289;28;20076;-72
2023/11/02 00:54:45;;;;;;;11.00;3.58;;;9.30;99.90;;;;;;5007774;28;20057;-75
2023/11/02 00:57:12;;;;;;;7.78;2.92;;;9.30;99.90;;;;;;5004160;28;20483;-74
2023/11/02 00:59:41;;;;;;;6.10;3.13;;;9.30;99.90;;;;;;5002066;28;20085;-74
2023/11/02 01:02:08;;;;;;;7.97;2.90;;;9.30;99.90;;;;;;4993356;28;20105;-74
2023/11/02 01:04:42;;;;;;;6.28;2.95;;;9.40;99.90;;;;;;4995648;28;20045;-74
2023/11/02 01:07:12;;;;;;;6.63;3.08;;;9.50;99.90;;;;;;4998116;28;20030;-74
2023/11/02 01:09:55;;;;;;;8.32;3.13;;;9.50;99.90;;;;;;5009175;28;20030;-74
2023/11/02 01:12:39;;;;;;;7.28;2.60;;;9.50;99.90;;;;;;5000958;28;20034;-74
2023/11/02 01:15:20;;;;;;;9.25;4.82;;;9.50;99.90;;;;;;4991923;28;20034;-74
2023/11/02 01:17:45;;;;;;;6.47;3.35;;;9.50;99.90;;;;;;4997534;28;20034;-74
2023/11/02 01:20:38;;;;;;;8.15;4.00;;;9.50;99.90;;;;;;5004363;28;20092;-74
2023/11/02 01:23:06;;;;;;;7.13;3.38;;;9.50;99.90;;;;;;4965062;28;20037;-74
2023/11/02 01:25:41;;;;;;;8.38;3.35;;;9.50;99.90;;;;;;4997698;28;20031;-74
2023/11/02 01:28:07;;;;;;;6.13;3.05;;;9.50;99.90;;;;;;5000073;28;20029;-74
2023/11/02 01:30:36;;;;;;;6.35;3.00;;;9.60;99.90;;;;;;4991722;28;20049;-74
2023/11/02 01:33:25;;;;;;;8.35;3.78;;;9.50;99.90;;;;;;4998551;28;20436;-74
2023/11/02 01:35:50;;;;;;;6.80;2.65;;;9.40;99.90;;;;;;4997430;28;20365;-74
2023/11/02 01:38:16;;;;;;;5.70;2.60;;;9.40;99.90;;;;;;5001117;28;20041;-74
2023/11/02 01:41:06;;;;;;;7.20;3.47;;;9.40;99.90;;;;;;4991348;28;20030;-74
2023/11/02 01:43:50;;;;;;;4.97;2.70;;;9.40;99.90;;;;;;4993410;28;20026;-75
2023/11/02 01:46:22;;;;;;;4.30;2.50;;;9.40;99.90;;;;;;5003652;28;20169;-74
2023/11/02 01:48:58;;;;;;;5.88;2.38;;;9.50;99.90;;;;;;4990671;28;20396;-74
2023/11/02 01:51:33;;;;;;;5.82;2.90;;;9.50;99.90;;;;;;4995798;28;20534;-74
2023/11/02 01:54:06;;;;;;;;;;;9.50;99.90;;;;;;4995207;28;20030;-74
2023/11/02 01:56:59;;;;;;;7.93;2.40;;;9.50;99.90;;;;;;4993728;28;19950;-74
2023/11/02 01:59:48;;;;;;;6.60;3.00;;;9.50;99.90;;;;;;5001646;28;20066;-74
2023/11/02 02:02:33;;;;;;;7.20;2.42;;;9.40;99.90;;;;;;4991635;28;20030;-74
2023/11/02 02:05:07;;;;;;;4.85;2.55;;;9.30;99.90;;;;;;4992995;28;20124;-74
2023/11/02 02:08:11;;;;;;;5.95;3.10;;;9.40;99.90;;;;;;4989261;28;20089;-74
2023/11/02 02:11:05;;;;;;;4.85;2.67;;;9.40;99.90;;;;;;4990110;28;20026;-74
2023/11/02 02:13:55;;;;;;;6.10;2.28;;;9.40;99.90;;;;;;4968089;28;20076;-73
2023/11/02 02:16:45;;;;;;;5.10;2.42;;;9.50;99.90;;;;;;5007197;28;20092;-73
2023/11/02 02:19:29;;;;;;;5.43;2.78;;;9.50;99.90;;;;;;4994896;28;20038;-74
2023/11/02 02:21:59;;;;;;;;;;;9.40;99.90;;;;;;5002496;28;20033;-73
2023/11/02 02:24:49;;;;;;;7.90;2.95;;;9.50;99.90;;;;;;5007589;28;19915;-74
2023/11/02 02:27:38;;;;;;;5.90;2.80;;;9.40;99.90;;;;;;4952370;28;20045;-74
2023/11/02 02:30:24;;;;;;;4.25;2.53;;;9.50;99.90;;;;;;5003175;28;20033;-74
2023/11/02 02:33:09;;;;;;;6.97;3.65;;;9.40;99.90;;;;;;4998390;28;20037;-74
2023/11/02 02:35:40;;;;;;;7.70;3.38;;;9.40;99.90;;;;;;4992760;28;20040;-74
2023/11/02 02:38:16;;;;;;;11.30;4.07;;;9.50;99.90;;;;;;5008095;28;20395;-74
2023/11/02 02:41:07;;;;;;;6.03;3.55;;;9.30;99.90;;;;;;4996551;28;20034;-74
2023/11/02 02:43:34;;;;;;;6.97;4.03;;;9.30;99.90;;;;;;5002025;28;20037;-75
2023/11/02 02:46:03;;;;;;;9.82;5.13;;;9.30;99.90;;;;;;4997601;28;20116;-74
2023/11/02 02:48:30;;;;;;;11.10;5.65;;;9.30;99.90;;;;;;4998708;28;20049;-75
2023/11/02 02:51:02;;;;;;;9.93;5.97;;;9.30;99.90;;;;;;4995876;28;20027;-74
2023/11/02 02:53:31;;;;;;;8.60;5.35;;;9.30;99.90;;;;;;4995661;28;20502;-74
2023/11/02 02:56:04;;;;;;;7.85;4.63;;;9.30;99.90;;;;;;5001105;28;20033;-74
2023/11/02 02:58:33;;;;;;;7.07;4.03;;;9.50;99.90;;;;;;4998761;28;20082;-74
2023/11/02 03:01:01;;;;;;;7.03;4.30;;;9.50;99.90;;;;;;4992719;28;20132;-75
2023/11/02 03:03:29;;;;;;;9.90;5.13;;;9.50;99.90;;;;;;4998504;28;20026;-74
2023/11/02 03:05:56;;;;;;;6.55;4.22;;;9.40;99.90;;;;;;4994163;28;20030;-75
2023/11/02 03:08:23;;;;;;;7.57;4.05;;;9.30;99.90;;;;;;4990418;28;20080;-74
2023/11/02 03:10:50;;;;;;;7.00;4.20;;;9.30;99.90;;;;;;4992858;28;20101;-74
2023/11/02 03:13:17;;;;;;;6.80;4.15;;;9.30;99.90;;;;;;4991711;28;20066;-74
2023/11/02 03:15:45;;;;;;;7.43;4.78;;;9.40;99.90;;;;;;4990539;28;20087;-74
2023/11/02 03:18:13;;;;;;;16.98;5.10;;;9.50;99.90;;;;;;4990140;28;20045;-74
2023/11/02 03:20:41;;;;;;;11.25;4.53;;;9.40;99.90;;;;;;4993315;28;20459;-74
2023/11/02 03:23:33;;;;;;;15.00;5.97;;;9.30;99.90;;;;;;4989118;28;20038;-73
2023/11/02 03:26:11;;;;;;;41.75;8.80;;;9.30;99.90;;;;;;4999122;28;20034;-73
2023/11/02 03:28:55;;;;;;;9.52;5.15;;;9.30;99.90;;;;;;4993993;28;20037;-74
2023/11/02 03:31:35;;;;;;;7.70;4.57;;;9.40;99.90;;;;;;4995701;28;20038;-74
2023/11/02 03:34:19;;;;;;;7.93;4.53;;;9.40;99.90;;;;;;4995971;28;20328;-74
2023/11/02 03:36:50;;;;;;;9.90;4.88;;;9.40;99.90;;;;;;4989790;28;20038;-74
2023/11/02 03:39:29;;;;;;;6.93;4.65;;;9.40;99.90;;;;;;4988231;28;20038;-75
2023/11/02 03:42:18;;;;;;;11.77;4.85;;;9.40;99.90;;;;;;4996536;28;20026;-73
2023/11/02 03:44:52;;;;;;;7.35;4.57;;;9.40;99.90;;;;;;5001069;28;20035;-74
2023/11/02 03:47:45;;;;;;;8.98;5.05;;;9.40;99.90;;;;;;5004455;28;20030;-74
2023/11/02 03:50:27;;;;;;;6.57;4.53;;;9.40;99.90;;;;;;4993239;28;20136;-74
2023/11/02 03:53:09;;;;;;;8.60;4.63;;;9.40;99.90;;;;;;4995545;28;20392;-74
2023/11/02 03:56:02;;;;;;;8.90;4.82;;;9.50;99.90;;;;;;4990877;28;20030;-74
2023/11/02 03:58:36;;;;;;;9.05;5.03;;;9.40;99.90;;;;;;4996448;28;20492;-74
2023/11/02 04:01:16;;;;;;;10.50;5.50;;;9.50;99.90;;;;;;5001205;28;20041;-74
2023/11/02 04:03:48;;;;;;;11.45;6.57;;;9.50;99.90;;;;;;4991488;28;20038;-75
2023/11/02 04:06:19;;;;;;;10.07;6.05;;;9.50;99.90;;;;;;4991899;28;20031;-75
2023/11/02 04:08:49;;;;;;;8.02;5.10;;;9.50;99.90;;;;;;4990456;28;20026;-74
2023/11/02 04:11:29;;;;;;;8.38;5.25;;;9.50;99.90;;;;;;4989642;28;20560;-74
2023/11/02 04:13:57;;;;;;;8.48;5.00;;;9.40;99.90;;;;;;4995118;28;20467;-75
2023/11/02 04:16:25;;;;;;;7.10;4.93;;;9.30;99.90;;;;;;4993127;28;20045;-74
2023/11/02 04:18:51;;;;;;;9.02;5.35;;;9.30;99.90;;;;;;4993908;28;20503;-74
2023/11/02 04:21:17;;;;;;;7.93;5.25;;;9.30;99.90;;;;;;5000579;28;20026;-74
2023/11/02 04:23:43;;;;;;;8.25;5.03;;;9.50;99.90;;;;;;5007588;28;20031;-74
2023/11/02 04:26:08;;;;;;;9.43;5.43;;;9.50;99.90;;;;;;4998142;28;20029;-74
2023/11/02 04:28:34;;;;;;;13.20;5.93;;;9.30;99.90;;;;;;4998185;28;20018;-74
2023/11/02 04:31:00;;;;;;;8.70;4.60;;;9.30;99.90;;;;;;4995817;28;20407;-74
2023/11/02 04:33:25;;;;;;;9.25;5.75;;;9.30;99.90;;;;;;4993737;28;20526;-74
2023/11/02 04:35:51;;;;;;;7.80;5.32;;;9.20;99.90;;;;;;4990170;28;20499;-74
2023/11/02 04:38:17;;;;;;;10.52;5.93;;;9.20;99.90;;;;;;4996805;28;20041;-74
2023/11/02 04:40:42;;;;;;;9.85;6.20;;;9.30;99.90;;;;;;4995706;28;20036;-74
2023/11/02 04:43:08;;;;;;;11.60;7.20;;;9.30;99.90;;;;;;4998173;28;20026;-73
2023/11/02 04:45:36;;;;;;;10.25;6.47;;;9.40;99.90;;;;;;4992918;28;20034;-74
2023/11/02 04:48:03;;;;;;;11.48;6.70;;;9.40;99.90;;;;;;4999690;28;20676;-73
2023/11/02 04:50:28;;;;;;;8.73;5.88;;;9.40;99.90;;;;;;4995288;28;20046;-74
2023/11/02 04:52:54;;;;;;;10.85;6.32;;;9.40;99.90;;;;;;4995907;28;20480;-74
2023/11/02 04:55:20;;;;;;;8.25;6.03;;;9.50;99.90;;;;;;4991159;28;20546;-73
2023/11/02 04:57:46;;;;;;;57.45;13.07;;;9.40;99.90;;;;;;4986306;28;20035;-74
2023/11/02 05:00:13;;;;;;;76.38;13.98;;;9.40;99.90;;;;;;4996035;28;20038;-73
2023/11/02 05:02:39;;;;;;;7.90;4.72;;;9.40;99.90;;;;;;4993476;28;20042;-73
2023/11/02 05:05:05;;;;;;;13.20;9.10;;;9.30;99.90;;;;;;4995920;28;20530;-74
2023/11/02 05:07:31;;;;;;;64.82;35.40;;;9.40;99.90;;;;;;4994404;28;20030;-74
2023/11/02 05:09:57;;;;;;;18.90;10.73;;;9.50;99.90;;;;;;4989452;28;20033;-74
2023/11/02 05:12:22;;;;;;;10.55;6.10;;;9.40;99.90;;;;;;4992403;28;20432;-75
2023/11/02 05:14:48;;;;;;;9.57;6.18;;;9.30;99.90;;;;;;4987049;28;20390;-74
2023/11/02 05:17:14;;;;;;;8.95;6.28;;;9.30;99.90;;;;;;4994055;28;20552;-74
2023/11/02 05:19:39;;;;;;;10.30;6.43;;;9.40;99.90;;;;;;4987544;28;20436;-74
2023/11/02 05:22:06;;;;;;;10.13;5.47;;;9.40;99.90;;;;;;4986461;28;20064;-74
2023/11/02 05:24:32;;;;;;;8.20;5.30;;;9.40;99.90;;;;;;4993083;28;20031;-75
2023/11/02 05:26:57;;;;;;;9.00;6.07;;;9.40;99.90;;;;;;4990418;28;20026;-75
2023/11/02 05:29:23;;;;;;;9.90;5.15;;;9.30;99.90;;;;;;4998067;28;20022;-75
2023/11/02 05:31:49;;;;;;;9.27;5.95;;;9.40;99.90;;;;;;4987559;28;20094;-75
2023/11/02 05:34:15;;;;;;;10.30;6.50;;;9.40;99.90;;;;;;4986154;28;20026;-75
2023/11/02 05:36:41;;;;;;;34.83;14.95;;;9.40;99.90;;;;;;4985683;28;20035;-75
2023/11/02 05:39:07;;;;;;;31.63;11.55;;;9.40;99.90;;;;;;4987859;28;20062;-75
2023/11/02 05:41:32;;;;;;;18.30;8.90;;;9.40;99.90;;;;;;4985730;28;20676;-74
2023/11/02 05:43:58;;;;;;;9.35;6.45;;;9.30;99.90;;;;;;4995742;28;20025;-75
2023/11/02 05:46:24;;;;;;;9.38;5.97;;;9.30;99.90;;;;;;4994128;28;20492;-74
2023/11/02 05:48:49;;;;;;;12.85;7.25;;;9.30;99.90;;;;;;4991749;28;20399;-74
2023/11/02 05:51:15;;;;;;;8.95;5.75;;;9.30;99.90;;;;;;4987509;28;20354;-74
2023/11/02 05:53:42;;;;;;;9.35;5.70;;;9.30;99.90;;;;;;5004651;28;20080;-74
2023/11/02 05:56:08;;;;;;;8.52;5.90;;;9.30;99.90;;;;;;4986340;28;20043;-74
2023/11/02 05:58:34;;;;;;;13.85;10.25;;;9.30;99.90;;;;;;4995806;28;20040;-73
2023/11/02 06:01:00;;;;;;;9.80;7.18;;;9.40;99.90;;;;;;4993633;28;20112;-72
2023/11/02 06:03:26;;;;;;;10.32;6.47;;;9.40;99.90;;;;;;4997360;28;20112;-74
2023/11/02 06:05:53;;;;;;;13.02;8.35;;;9.40;99.90;;;;;;4996036;28;20105;-74
2023/11/02 06:08:19;;;;;;;10.93;7.47;;;9.30;99.90;;;;;;4991587;28;20026;-74
2023/11/02 06:10:45;;;;;;;38.55;27.23;;;9.40;99.90;;;;;;4986511;28;20033;-74
2023/11/02 06:13:10;;;;;;;14.18;10.23;;;9.40;99.90;;;;;;5000100;28;20036;-74
2023/11/02 06:15:36;;;;;;;65.53;12.27;;;9.40;99.90;;;;;;5004032;28;20038;-75
2023/11/02 06:18:02;;;;;;;11.55;7.35;;;9.40;99.90;;;;;;4995970;28;20054;-73
2023/11/02 06:20:28;;;;;;;12.60;8.07;;;9.30;99.90;;;;;;4983777;28;20054;-75
2023/11/02 06:22:54;;;;;;;51.10;11.40;;;9.40;99.90;;;;;;4987235;28;20041;-73
2023/11/02 06:25:21;;;;;;;32.10;9.80;;;9.40;99.90;;;;;;4988985;28;20369;-74
2023/11/02 06:27:47;;;;;;;14.25;7.80;;;9.30;99.90;;;;;;4996611;28;20550;-74
2023/11/02 06:30:13;;;;;;;13.23;6.00;;;9.30;99.90;;;;;;4984417;28;20034;-73
2023/11/02 06:32:39;;;;;;;9.95;6.53;;;9.30;99.90;;;;;;4987754;28;20038;-76
2023/11/02 06:35:05;;;;;;;9.60;6.25;;;9.30;99.90;;;;;;4990383;28;20037;-75
2023/11/02 06:37:31;;;;;;;10.55;7.05;;;9.30;99.90;;;;;;4981260;28;20101;-74
2023/11/02 06:39:57;;;;;;;9.15;7.15;;;9.30;99.90;;;;;;4990427;28;20127;-74
2023/11/02 06:42:24;;;;;;;10.80;7.05;;;9.40;99.90;;;;;;4987862;28;20033;-75
2023/11/02 06:44:50;;;;;;;13.27;8.55;;;9.50;99.90;;;;;;4981505;28;20048;-74
2023/11/02 06:47:16;;;;;;;10.88;7.40;;;9.50;99.90;;;;;;4982740;28;20041;-75
2023/11/02 06:49:41;;;;;;;12.82;6.85;;;9.50;99.90;;;;;;4994802;28;20046;-75
2023/11/02 06:52:07;;;;;;;11.57;6.20;;;9.40;99.90;;;;;;4987790;28;20041;-75
2023/11/02 06:54:33;;;;;;;9.70;7.13;;;9.40;99.90;;;;;;4965972;28;20408;-74
2023/11/02 06:57:02;;;;;;;8.80;6.45;;;9.40;99.90;;;;;;4988083;28;20052;-75
2023/11/02 06:59:27;;;;;;;9.85;6.78;;;9.40;99.90;;;;;;4982474;28;20495;-76
2023/11/02 07:01:54;;;;;;;10.73;7.00;;;9.40;99.90;;;;;;4985041;28;20026;-75
2023/11/02 07:04:20;;;;;;;9.82;6.45;;;9.50;99.90;;;;;;4990512;28;20076;-75
2023/11/02 07:06:46;;;;;;;8.40;5.93;;;9.50;99.90;;;;;;4994595;28;20113;-75
2023/11/02 07:09:14;;;;;;;7.72;5.35;;;9.50;99.90;;;;;;4986743;28;20025;-75
2023/11/02 07:11:40;;;;;;;8.55;5.00;;;9.50;99.90;;;;;;4985614;28;20125;-76
2023/11/02 07:14:05;;;;;;;8.82;5.88;;;9.50;99.90;;;;;;4993760;28;20161;-75
2023/11/02 07:16:31;;;;;;;9.23;6.20;;;9.50;99.90;;;;;;4990598;28;20038;-76
2023/11/02 07:18:58;;;;;;;8.57;5.03;;;9.50;99.90;;;;;;4988754;28;20134;-76
2023/11/02 07:21:24;;;;;;;6.40;4.80;;;9.60;99.90;;;;;;4988833;28;20182;-76
2023/11/02 07:23:50;;;;;;;15.65;6.47;;;9.60;99.90;;;;;;4984420;28;20117;-76
2023/11/02 07:26:17;;;;;;;23.17;9.98;;;9.60;99.90;;;;;;4985622;28;20600;-76
2023/11/02 07:28:42;;;;;;;196.82;26.42;;;9.60;99.90;;;;;;4988873;28;20029;-76
2023/11/02 07:31:08;;;;;;;468.70;55.88;;;9.60;99.90;;;;;;4990046;28;20038;-76
2023/11/02 07:33:40;;;;;;;46.17;9.43;;;9.60;99.90;;;;;;4984143;28;20038;-76
2023/11/02 07:36:12;;;;;;;7.57;5.60;;;9.50;99.90;;;;;;4987980;28;20192;-75
2023/11/02 07:38:38;;;;;;;9.00;5.40;;;9.50;99.90;;;;;;4993090;28;20061;-76
2023/11/02 07:41:06;;;;;;;8.23;5.47;;;9.60;99.90;;;;;;5001344;28;20627;-74
2023/11/02 07:43:35;;;;;;;8.18;6.30;;;9.60;99.90;;;;;;4997039;28;20049;-74
2023/11/02 07:46:00;;;;;;;75.95;11.70;;;9.70;99.90;;;;;;4999192;28;20034;-75
2023/11/02 07:48:26;;;;;;;7.38;5.13;;;9.60;99.90;;;;;;4992650;28;20053;-75
2023/11/02 07:50:52;;;;;;;5.97;3.95;;;9.60;99.90;;;;;;4993243;28;20453;-76
2023/11/02 07:53:20;;;;;;;7.03;3.97;;;9.70;99.90;;;;;;4998399;28;20588;-76
2023/11/02 07:55:46;;;;;;;5.47;3.30;;;9.80;99.90;;;;;;5000448;28;20192;-74
2023/11/02 07:58:13;;;;;;;5.78;3.60;;;9.80;99.90;;;;;;5009379;28;20160;-74
2023/11/02 08:00:39;;;;;;;8.10;3.80;;;9.80;99.90;;;;;;5005243;28;20392;-74
2023/11/02 08:03:05;;;;;;;5.47;3.35;;;9.90;99.90;;;;;;4990217;28;20037;-74
2023/11/02 08:05:31;;;;;;;5.75;3.28;;;9.90;99.90;;;;;;4988425;28;20038;-75
2023/11/02 08:07:57;;;;;;;10.13;5.43;;;9.90;99.90;;;;;;4993661;28;20120;-75
2023/11/02 08:10:23;;;;;;;111.80;14.32;;;9.80;99.90;;;;;;4998184;28;20068;-74
2023/11/02 08:12:49;;;;;;;332.55;36.28;;;9.80;99.90;;;;;;4997342;28;20057;-74
2023/11/02 08:15:15;;;;;;;6.65;4.57;;;9.60;99.90;;;;;;4990324;28;20117;-74
2023/11/02 08:17:42;;;;;;;24.40;5.82;;;9.70;99.90;;;;;;4995960;28;20076;-74
2023/11/02 08:20:10;;;;;;;21.35;5.85;;;9.70;99.90;;;;;;5003049;28;20049;-74
2023/11/02 08:22:36;;;;;;;82.90;10.10;;;9.70;99.90;;;;;;4994278;28;20040;-74
2023/11/02 08:25:03;;;;;;;9.15;5.07;;;9.70;99.90;;;;;;4994492;28;20026;-74
2023/11/02 08:27:29;;;;;;;12.98;5.78;;;9.80;99.90;;;;;;4993884;28;20032;-74
2023/11/02 08:29:55;;;;;;;47.60;8.30;;;9.80;99.90;;;;;;5000139;28;20022;-74
2023/11/02 08:32:21;;;;;;;126.38;15.85;;;9.80;99.90;;;;;;4995768;28;20040;-75
2023/11/02 08:34:47;;;;;;;84.88;15.57;;;9.80;99.90;;;;;;4992576;28;20383;-74
2023/11/02 08:37:13;;;;;;;133.52;19.67;;;9.80;99.90;;;;;;4989851;28;20034;-74
2023/11/02 08:39:40;;;;;;;11.45;6.22;;;9.90;99.90;;;;;;5003232;28;20384;-74
2023/11/02 08:42:06;;;;;;;6.00;3.70;;;9.80;99.90;;;;;;4988457;28;20300;-74
2023/11/02 08:44:32;;;;;;;8.90;5.18;;;9.90;99.90;;;;;;4993688;28;20027;-74
2023/11/02 08:46:58;;;;;;;102.13;15.73;;;10.10;99.90;;;;;;4992520;28;20528;-73
2023/11/02 08:49:23;;;;;;;589.10;61.40;;;10.10;99.90;;;;;;4992899;28;20048;-74
2023/11/02 08:51:49;;;;;;;337.30;34.63;;;10.00;99.90;;;;;;4999797;28;20057;-74
2023/11/02 08:54:15;;;;;;;139.77;15.70;;;9.90;99.90;;;;;;4977359;28;20045;-74
2023/11/02 08:56:42;;;;;;;73.88;10.68;;;9.80;99.90;;;;;;4994672;28;20095;-74
2023/11/02 08:59:08;;;;;;;6.65;4.03;;;9.80;99.90;;;;;;4988207;28;20034;-75
2023/11/02 09:01:34;;;;;;;4.72;3.20;;;9.90;99.90;;;;;;4993136;28;20080;-79
2023/11/02 09:04:00;;;;;;;45.28;8.48;;;10.00;99.90;;;;;;4995160;28;20083;-75
2023/11/02 09:06:26;;;;;;;727.40;87.20;;;10.00;99.90;;;;;;4995621;28;20026;-74
2023/11/02 09:08:56;;;;;;;665.15;63.78;;;9.90;99.90;;;;;;4989028;28;20053;-75
2023/11/02 09:11:22;;;;;;;17.30;5.95;;;9.70;99.90;;;;;;4994457;28;20376;-74
2023/11/02 09:13:48;;;;;;;60.42;9.35;;;9.70;99.90;;;;;;4985647;28;20060;-75
2023/11/02 09:16:14;;;;;;;47.80;8.10;;;9.70;99.90;;;;;;4993027;28;20049;-74
2023/11/02 09:18:40;;;;;;;7.90;4.88;;;9.60;99.90;;;;;;4988455;28;20034;-74
2023/11/02 09:21:06;;;;;;;85.60;11.98;;;9.70;99.90;;;;;;4991047;28;20034;-75
2023/11/02 09:23:34;;;;;;;167.20;19.13;;;9.80;99.90;;;;;;4996694;28;20450;-75
2023/11/02 09:26:04;;;;;;;96.13;13.45;;;9.80;99.90;;;;;;4999045;28;20034;-74
2023/11/02 09:28:29;;;;;;;456.65;45.38;;;9.80;99.90;;;;;;4995740;28;20093;-75
2023/11/02 09:30:55;;;;;;;22.30;6.38;;;9.80;99.90;;;;;;4988133;28;20101;-76
2023/11/02 09:33:21;;;;;;;217.38;24.88;;;9.80;99.90;;;;;;4988611;28;20061;-75
2023/11/02 09:35:47;;;;;;;43.65;8.23;;;9.80;99.90;;;;;;4999442;28;20383;-75
2023/11/02 09:38:13;;;;;;;133.68;15.68;;;9.80;99.90;;;;;;4993380;28;20038;-76
2023/11/02 09:40:42;;;;;;;25.05;6.53;;;9.70;99.90;;;;;;4999405;28;20037;-75
2023/11/02 09:43:09;;;;;;;253.88;24.50;;;9.70;99.90;;;;;;5000787;28;20042;-76
2023/11/02 09:45:36;;;;;;;71.22;11.25;;;9.70;99.90;;;;;;4994911;28;20029;-75
2023/11/02 09:48:03;;;;;;;233.85;24.63;;;9.80;99.90;;;;;;4995346;28;20500;-75
2023/11/02 09:50:29;;;;;;;7.63;4.25;;;9.80;99.90;;;;;;4995610;28;20046;-77
2023/11/02 09:52:55;;;;;;;347.85;37.83;;;9.80;99.90;;;;;;4995716;28;20036;-74
2023/11/02 09:55:25;;;;;;;10.00;4.75;;;9.80;99.90;;;;;;4989500;28;20116;-75
2023/11/02 09:57:51;;;;;;;28.33;6.68;;;9.80;99.90;;;;;;4994329;28;20034;-75
2023/11/02 10:00:18;;;;;;;278.85;28.30;;;9.80;99.90;;;;;;4985966;28;20124;-75
2023/11/02 10:02:49;;;;;;;89.75;11.25;;;9.90;99.90;;;;;;4992018;28;20034;-75
2023/11/02 10:05:16;;;;;;;346.77;34.72;;;9.90;99.90;;;;;;4997179;28;20571;-75
2023/11/02 10:07:42;;;;;;;60.17;8.80;;;9.90;99.90;;;;;;4995613;28;20030;-76
2023/11/02 10:10:12;;;;;;;5.65;3.95;;;9.90;99.90;;;;;;4993811;28;20037;-75
2023/11/02 10:12:40;;;;;;;6.85;4.38;;;9.90;99.90;;;;;;4997158;28;20494;-75
2023/11/02 10:15:09;;;;;;;6.55;4.22;;;10.00;99.90;;;;;;4977840;28;20121;-75
2023/11/02 10:17:39;;;;;;;7.97;4.40;;;9.90;99.90;;;;;;4992515;28;20193;-75
2023/11/02 10:20:15;;;;;;;11.88;5.60;;;10.00;99.90;;;;;;4994820;28;20045;-75
2023/11/02 10:22:44;;;;;;;9.15;4.90;;;9.90;99.90;;;;;;4986458;28;20036;-75
2023/11/02 10:25:13;;;;;;;7.43;5.00;;;9.90;99.90;;;;;;4972996;28;20042;-76
2023/11/02 10:27:41;;;;;;;6.72;4.70;;;10.00;99.90;;;;;;4982331;28;20157;-77
2023/11/02 10:30:07;;;;;;;24.58;6.53;;;10.00;99.90;;;;;;4988582;28;20081;-77
2023/11/02 10:32:35;;;;;;;8.38;4.72;;;10.10;99.90;;;;;;4982338;28;20038;-77
2023/11/02 10:35:03;;;;;;;7.28;4.45;;;9.90;99.90;;;;;;4988435;28;20041;-76
2023/11/02 10:37:33;;;;;;;5.60;3.97;;;9.90;99.90;;;;;;4989977;28;20037;-77
2023/11/02 10:39:59;;;;;;;7.90;4.72;;;9.90;99.90;;;;;;4983049;28;20069;-76
2023/11/02 10:42:26;;;;;;;8.75;4.93;;;10.00;99.90;;;;;;4986165;28;20031;-76
2023/11/02 10:44:52;;;;;;;6.35;3.85;;;10.00;99.90;;;;;;4987757;28;20041;-76
2023/11/02 10:47:19;;;;;;;134.10;17.77;;;9.90;99.90;;;;;;4989417;28;20080;-76
2023/11/02 10:49:44;;;;;;;860.65;101.95;;;9.90;99.90;;;;;;4985929;28;20045;-76
2023/11/02 10:52:15;;;;;;;420.00;52.85;;;10.00;99.90;;;;;;4990319;28;20026;-76
2023/11/02 10:54:51;;;;;;;67.32;10.02;;;9.80;99.90;;;;;;4989197;28;20032;-76
2023/11/02 10:57:26;;;;;;;200.68;25.13;;;9.80;99.90;;;;;;4989228;28;20030;-76
2023/11/02 10:59:53;;;;;;;206.07;27.08;;;9.90;99.90;;;;;;4983411;28;20109;-77
2023/11/02 11:02:19;;;;;;;9.85;6.20;;;9.90;99.90;;;;;;4986189;28;20029;-76
2023/11/02 11:04:46;;;;;;;19.33;6.40;;;9.80;99.90;;;;;;4984005;28;20037;-76
2023/11/02 11:07:12;;;;;;;8.73;4.78;;;9.70;99.90;;;;;;4991426;28;20387;-76
2023/11/02 11:09:40;;;;;;;7.70;4.60;;;9.80;99.90;;;;;;4993906;28;20030;-76
2023/11/02 11:12:06;;;;;;;20.58;8.70;;;9.80;99.90;;;;;;4994648;28;20025;-77
2023/11/02 11:14:34;;;;;;;10.40;7.15;;;9.90;99.90;;;;;;4989908;28;20037;-77
2023/11/02 11:17:00;;;;;;;13.45;6.65;;;10.00;99.90;;;;;;4991038;28;20054;-76
2023/11/02 11:19:31;;;;;;;6.15;4.60;;;9.90;99.90;;;;;;4990390;28;20552;-76
2023/11/02 11:22:00;;;;;;;6.75;5.10;;;10.00;99.90;;;;;;4995067;28;20030;-77
2023/11/02 11:24:30;;;;;;;11.80;6.25;;;10.10;99.90;;;;;;5000877;28;20052;-76
2023/11/02 11:26:58;;;;;;;9.23;6.72;;;10.10;99.90;;;;;;4998980;28;20037;-75
2023/11/02 11:29:38;;;;;;;11.07;8.02;;;10.10;99.90;;;;;;4988889;28;20037;-75
2023/11/02 11:32:28;;;;;;;8.32;5.90;;;10.10;99.90;;;;;;4992861;28;20469;-76
2023/11/02 11:34:53;;;;;;;11.55;9.82;;;10.10;99.90;;;;;;4986240;28;20065;-76
2023/11/02 11:37:49;;;;;;;156.07;26.05;;;10.10;99.90;;;;;;4993312;28;20453;-76
2023/11/02 11:40:21;;;;;;;18.80;12.43;;;10.10;99.90;;;;;;5002449;28;20030;-76
2023/11/02 11:43:05;;;;;;;10.55;6.07;;;10.20;99.90;;;;;;4999687;28;20172;-76
2023/11/02 11:45:35;;;;;;;54.65;11.82;;;10.10;99.90;;;;;;4994511;28;20026;-75
2023/11/02 11:48:02;;;;;;;468.58;55.42;;;10.10;99.90;;;;;;4994340;28;20088;-77
2023/11/02 11:50:45;;;;;;;224.73;28.05;;;10.00;99.90;;;;;;4997490;28;20066;-76
2023/11/02 11:53:17;;;;;;;56.58;8.48;;;10.00;99.90;;;;;;4995644;28;20385;-76
2023/11/02 11:55:45;;;;;;;28.70;9.10;;;9.90;99.90;;;;;;5000101;28;20141;-76
2023/11/02 11:58:11;;;;;;;11.60;6.03;;;10.00;99.90;;;;;;5000356;28;20045;-75
2023/11/02 12:00:50;;;;;;;18.08;10.57;;;10.00;99.90;;;;;;4999766;28;20030;-76
2023/11/02 12:03:34;;;;;;;34.38;9.98;;;10.00;99.90;;;;;;4995323;28;20038;-76
2023/11/02 12:06:00;;;;;;;28.90;7.32;;;10.10;99.90;;;;;;5002372;28;20034;-76
2023/11/02 12:08:26;;;;;;;111.13;12.45;;;10.10;99.90;;;;;;4998797;28;20518;-74
2023/11/02 12:10:54;;;;;;;139.70;17.60;;;10.00;99.90;;;;;;5001217;28;20026;-77
2023/11/02 12:13:20;;;;;;;179.05;25.70;;;10.00;99.90;;;;;;5000235;28;20030;-75
2023/11/02 12:16:03;;;;;;;55.92;7.95;;;9.80;99.90;;;;;;4996686;28;20031;-75
2023/11/02 12:18:33;;;;;;;526.40;59.92;;;9.90;99.90;;;;;;4996669;28;20038;-75
2023/11/02 12:21:00;;;;;;;29.48;4.10;;;9.80;99.90;;;;;;5003032;28;20492;-75
2023/11/02 12:23:39;;;;;;;8.05;4.60;;;9.70;99.90;;;;;;4989067;28;20093;-75
2023/11/02 12:26:07;;;;;;;16.80;9.27;;;9.80;99.90;;;;;;4995411;28;20030;-75
2023/11/02 12:28:43;;;;;;;5.95;4.00;;;9.80;99.90;;;;;;4991775;28;20041;-74
2023/11/02 12:31:09;;;;;;;6.18;4.15;;;9.90;99.90;;;;;;4999228;28;20025;-73
2023/11/02 12:33:36;;;;;;;5.38;3.50;;;9.90;99.90;;;;;;4996189;28;20022;-73
2023/11/02 12:36:02;;;;;;;9.90;7.18;;;9.90;99.90;;;;;;4985227;28;20719;-73
2023/11/02 12:38:43;;;;;;;6.57;3.47;;;9.90;99.90;;;;;;4984642;28;20023;-74
2023/11/02 12:41:12;;;;;;;45.00;8.52;;;9.90;99.90;;;;;;4988437;28;20021;-73
2023/11/02 12:43:40;;;;;;;403.08;44.63;;;9.80;99.90;;;;;;4988974;28;20022;-73
2023/11/02 12:46:08;;;;;;;108.28;14.55;;;9.80;99.90;;;;;;4995697;28;20033;-73
2023/11/02 12:48:36;;;;;;;15.05;4.43;;;9.90;99.90;;;;;;4987730;28;20026;-74
2023/11/02 12:51:23;;;;;;;27.73;4.90;;;9.90;99.90;;;;;;4986942;28;20527;-75
2023/11/02 12:53:51;;;;;;;4.50;2.35;;;9.80;99.90;;;;;;4988668;28;20030;-75
2023/11/02 12:56:28;;;;;;;7.47;5.10;;;9.90;99.90;;;;;;4988655;28;20108;-74
2023/11/02 12:59:05;;;;;;;61.42;8.30;;;9.90;99.90;;;;;;4986255;28;20866;-74
2023/11/02 13:01:45;;;;;;;8.85;6.45;;;10.00;99.90;;;;;;4990862;28;20033;-74
2023/11/02 13:04:13;;;;;;;88.90;27.33;;;10.00;99.90;;;;;;4984333;28;20026;-74